Time;durP1;ratioP1;P1;durP2;ratioP2;P2;SDS_P1;SDS_P2;PMS_P1;PMS_P2;Temp;Humidity;BMP_temperature;BMP_pressure;BME280_temperature;BME280_humidity;BME280_pressure;Samples;Min_cycle;Max_cycle;Signal;HPM_P1;HPM_P2
2022/10/16 00:01:27;;;;;;;34.10;18.70;;;;;;;-128.00;-1.00;-1.00;103358;1283;1009698;-73
2022/10/16 00:04:14;;;;;;;34.30;18.80;;;;;;;-128.00;-1.00;-1.00;103247;1285;1011569;-72
2022/10/16 00:07:02;;;;;;;35.40;18.30;;;;;;;-128.00;-1.00;-1.00;103373;1276;1012432;-72
2022/10/16 00:09:50;;;;;;;36.40;18.30;;;;;;;-128.00;-1.00;-1.00;103349;1275;1013617;-72
2022/10/16 00:12:37;;;;;;;37.50;20.40;;;;;;;-128.00;-1.00;-1.00;103362;1291;1012141;-72
2022/10/16 00:15:25;;;;;;;30.80;14.80;;;;;;;-128.00;-1.00;-1.00;103355;1284;1010178;-74
2022/10/16 00:18:14;;;;;;;32.10;16.80;;;;;;;-128.00;-1.00;-1.00;103336;1291;1010588;-72
2022/10/16 00:21:09;;;;;;;33.90;18.80;;;;;;;-128.00;-1.00;-1.00;103361;1275;1013184;-73
2022/10/16 00:24:05;;;;;;;35.50;16.90;;;;;;;-128.00;-1.00;-1.00;103265;1282;1012194;-71
2022/10/16 00:26:53;;;;;;;36.00;17.10;;;;;;;-128.00;-1.00;-1.00;103308;1283;1013263;-73
2022/10/16 00:29:41;;;;;;;37.80;20.30;;;;;;;-128.00;-1.00;-1.00;103252;1275;1009059;-73
2022/10/16 00:32:29;;;;;;;36.80;17.80;;;;;;;-128.00;-1.00;-1.00;103351;1282;1011330;-73
2022/10/16 00:35:17;;;;;;;34.60;16.80;;;;;;;-128.00;-1.00;-1.00;103292;1276;1012977;-74
2022/10/16 00:38:04;;;;;;;34.20;17.90;;;;;;;-128.00;-1.00;-1.00;103352;1282;1012359;-72
2022/10/16 00:40:53;;;;;;;36.10;17.00;;;;;;;-128.00;-1.00;-1.00;103357;1275;1013088;-74
2022/10/16 00:43:47;;;;;;;32.40;17.00;;;;;;;-128.00;-1.00;-1.00;103356;1275;1009720;-73
2022/10/16 00:46:41;;;;;;;35.10;18.20;;;;;;;-128.00;-1.00;-1.00;103277;1274;1010637;-74
2022/10/16 00:49:29;;;;;;;32.60;16.90;;;;;;;-128.00;-1.00;-1.00;103281;1278;1012730;-73
2022/10/16 00:52:18;;;;;;;34.60;18.00;;;;;;;-128.00;-1.00;-1.00;103268;1271;1012311;-72
2022/10/16 00:55:08;;;;;;;36.00;18.00;;;;;;;-128.00;-1.00;-1.00;103297;1275;1013638;-73
2022/10/16 00:57:57;;;;;;;32.70;17.40;;;;;;;-128.00;-1.00;-1.00;103178;1278;1009233;-72
2022/10/16 01:00:45;;;;;;;31.10;15.90;;;;;;;-128.00;-1.00;-1.00;103340;1275;1011595;-73
2022/10/16 01:03:36;;;;;;;32.10;16.70;;;;;;;-128.00;-1.00;-1.00;103340;1275;1013061;-72
2022/10/16 01:06:36;;;;;;;26.80;14.30;;;;;;;-128.00;-1.00;-1.00;103366;1282;1012481;-72
2022/10/16 01:09:40;;;;;;;30.70;15.00;;;;;;;-128.00;-1.00;-1.00;103256;1289;1012833;-72
2022/10/16 01:12:55;;;;;;;29.40;15.30;;;;;;;-128.00;-1.00;-1.00;103279;1279;1009872;-73
2022/10/16 01:15:57;;;;;;;30.60;15.10;;;;;;;-128.00;-1.00;-1.00;103155;1290;1010955;-73
2022/10/16 01:18:54;;;;;;;29.20;15.40;;;;;;;-128.00;-1.00;-1.00;103370;1275;1014346;-73
2022/10/16 01:21:46;;;;;;;31.70;15.70;;;;;;;-128.00;-1.00;-1.00;103194;1283;1013435;-72
2022/10/16 01:25:08;;;;;;;25.90;13.50;;;;;;;-128.00;-1.00;-1.00;103193;1271;1013632;-72
2022/10/16 01:27:57;;;;;;;27.00;13.20;;;;;;;-128.00;-1.00;-1.00;103344;1291;1009280;-73
2022/10/16 01:30:47;;;;;;;25.30;13.70;;;;;;;-128.00;-1.00;-1.00;103210;1291;1010720;-73
2022/10/16 01:33:46;;;;;;;23.40;11.10;;;;;;;-128.00;-1.00;-1.00;103283;1278;1012038;-73
2022/10/16 01:36:48;;;;;;;28.40;14.60;;;;;;;-128.00;-1.00;-1.00;103168;1279;1012667;-72
2022/10/16 01:39:40;;;;;;;26.60;13.40;;;;;;;-128.00;-1.00;-1.00;103239;1278;1012899;-73
2022/10/16 01:42:46;;;;;;;28.40;14.00;;;;;;;-128.00;-1.00;-1.00;103271;1278;1009949;-73
2022/10/16 01:45:36;;;;;;;27.70;14.70;;;;;;;-128.00;-1.00;-1.00;103285;1275;1011570;-73
2022/10/16 01:48:24;;;;;;;25.80;13.60;;;;;;;-128.00;-1.00;-1.00;103346;1275;1013100;-74
2022/10/16 01:51:15;;;;;;;30.60;14.20;;;;;;;-128.00;-1.00;-1.00;103252;1285;1013751;-72
2022/10/16 01:54:06;;;;;;;27.40;13.90;;;;;;;-128.00;-1.00;-1.00;103290;1278;1012423;-73
2022/10/16 01:56:56;;;;;;;25.80;13.30;;;;;;;-128.00;-1.00;-1.00;103337;1268;1009549;-73
2022/10/16 01:59:49;;;;;;;26.30;14.10;;;;;;;-128.00;-1.00;-1.00;103350;1291;1011101;-73
2022/10/16 02:02:40;;;;;;;23.80;12.20;;;;;;;-128.00;-1.00;-1.00;103291;1277;1013120;-72
2022/10/16 02:05:55;;;;;;;25.10;14.10;;;;;;;-128.00;-1.00;-1.00;103257;1286;1012721;-75
2022/10/16 02:08:43;;;;;;;27.40;14.80;;;;;;;-128.00;-1.00;-1.00;103252;1278;1011981;-74
2022/10/16 02:11:31;;;;;;;24.70;14.20;;;;;;;-128.00;-1.00;-1.00;103360;1276;1009736;-73
2022/10/16 02:14:19;;;;;;;22.60;13.90;;;;;;;-128.00;-1.00;-1.00;103364;1276;1011153;-73
2022/10/16 02:17:14;;;;;;;24.40;12.90;;;;;;;-128.00;-1.00;-1.00;103351;1275;1012445;-73
2022/10/16 02:20:04;;;;;;;23.80;13.50;;;;;;;-128.00;-1.00;-1.00;103249;1278;1013363;-73
2022/10/16 02:22:55;;;;;;;23.20;13.50;;;;;;;-128.00;-1.00;-1.00;103387;1268;1011952;-73
2022/10/16 02:25:46;;;;;;;19.30;11.40;;;;;;;-128.00;-1.00;-1.00;103382;1275;1009455;-73
2022/10/16 02:28:58;;;;;;;25.90;13.70;;;;;;;-128.00;-1.00;-1.00;103357;1285;1010702;-73
2022/10/16 02:31:51;;;;;;;23.50;12.60;;;;;;;-128.00;-1.00;-1.00;103232;1294;1012391;-75
2022/10/16 02:34:40;;;;;;;23.90;13.70;;;;;;;-128.00;-1.00;-1.00;103210;1291;1013107;-72
2022/10/16 02:37:28;;;;;;;23.50;13.70;;;;;;;-128.00;-1.00;-1.00;103149;1282;1012960;-73
2022/10/16 02:40:17;;;;;;;24.50;12.70;;;;;;;-128.00;-1.00;-1.00;103361;1275;1009777;-75
2022/10/16 02:43:11;;;;;;;19.70;11.20;;;;;;;-128.00;-1.00;-1.00;103256;1291;1011134;-75
2022/10/16 02:45:59;;;;;;;21.70;12.50;;;;;;;-128.00;-1.00;-1.00;103188;1290;1011950;-74
2022/10/16 02:48:47;;;;;;;25.80;13.70;;;;;;;-128.00;-1.00;-1.00;103201;1277;1012825;-73
2022/10/16 02:51:35;;;;;;;24.00;13.60;;;;;;;-128.00;-1.00;-1.00;103342;1282;1012799;-73
2022/10/16 02:54:23;;;;;;;23.60;12.70;;;;;;;-128.00;-1.00;-1.00;103371;1284;1009645;-73
2022/10/16 02:57:11;;;;;;;23.50;13.20;;;;;;;-128.00;-1.00;-1.00;103312;1291;1011167;-75
2022/10/16 02:59:59;;;;;;;20.80;12.60;;;;;;;-128.00;-1.00;-1.00;103365;1275;1012132;-73
2022/10/16 03:02:47;;;;;;;22.70;12.70;;;;;;;-128.00;-1.00;-1.00;103388;1275;1012065;-73
2022/10/16 03:05:34;;;;;;;24.00;13.70;;;;;;;-128.00;-1.00;-1.00;103359;1275;1012700;-72
2022/10/16 03:08:24;;;;;;;22.00;12.40;;;;;;;-128.00;-1.00;-1.00;103343;1282;1010503;-72
2022/10/16 03:11:12;;;;;;;22.20;12.10;;;;;;;-128.00;-1.00;-1.00;103341;1284;1011292;-74
2022/10/16 03:14:00;;;;;;;25.40;12.70;;;;;;;-128.00;-1.00;-1.00;103374;1275;1012917;-73
2022/10/16 03:16:47;;;;;;;21.60;12.90;;;;;;;-128.00;-1.00;-1.00;103354;1283;1012811;-74
2022/10/16 03:19:35;;;;;;;22.10;12.60;;;;;;;-128.00;-1.00;-1.00;103353;1275;1014455;-72
2022/10/16 03:22:23;;;;;;;21.80;12.40;;;;;;;-128.00;-1.00;-1.00;103365;1283;1010089;-73
2022/10/16 03:25:11;;;;;;;22.10;12.40;;;;;;;-128.00;-1.00;-1.00;103338;1291;1010663;-73
2022/10/16 03:27:59;;;;;;;18.00;10.30;;;;;;;-128.00;-1.00;-1.00;103361;1284;1012597;-73
2022/10/16 03:30:47;;;;;;;21.00;12.50;;;;;;;-128.00;-1.00;-1.00;103368;1283;1011789;-72
2022/10/16 03:33:34;;;;;;;21.90;12.80;;;;;;;-128.00;-1.00;-1.00;103354;1282;1012748;-73
2022/10/16 03:36:22;;;;;;;20.60;12.20;;;;;;;-128.00;-1.00;-1.00;103345;1291;1010159;-73
2022/10/16 03:39:10;;;;;;;22.30;12.20;;;;;;;-128.00;-1.00;-1.00;103377;1275;1010937;-73
2022/10/16 03:41:58;;;;;;;20.40;12.50;;;;;;;-128.00;-1.00;-1.00;103365;1275;1013267;-74
2022/10/16 03:44:46;;;;;;;19.10;11.80;;;;;;;-128.00;-1.00;-1.00;103360;1275;1011950;-73
2022/10/16 03:47:33;;;;;;;21.40;13.20;;;;;;;-128.00;-1.00;-1.00;103368;1291;1013397;-73
2022/10/16 03:50:21;;;;;;;19.90;12.20;;;;;;;-128.00;-1.00;-1.00;103358;1282;1009999;-73
2022/10/16 03:53:09;;;;;;;21.00;11.50;;;;;;;-128.00;-1.00;-1.00;103363;1291;1011147;-72
2022/10/16 03:55:56;;;;;;;19.30;11.20;;;;;;;-128.00;-1.00;-1.00;103364;1291;1012932;-73
2022/10/16 03:58:44;;;;;;;23.80;10.90;;;;;;;-128.00;-1.00;-1.00;103381;1275;1012328;-73
2022/10/16 04:01:32;;;;;;;24.20;13.20;;;;;;;-128.00;-1.00;-1.00;103356;1291;1012349;-73
2022/10/16 04:04:20;;;;;;;20.50;12.30;;;;;;;-128.00;-1.00;-1.00;103381;1282;1010215;-74
2022/10/16 04:07:08;;;;;;;20.40;11.60;;;;;;;-128.00;-1.00;-1.00;103371;1291;1010440;-74
2022/10/16 04:09:56;;;;;;;18.50;10.30;;;;;;;-128.00;-1.00;-1.00;103383;1275;1012669;-72
2022/10/16 04:12:44;;;;;;;20.10;12.00;;;;;;;-128.00;-1.00;-1.00;103367;1275;1012076;-74
2022/10/16 04:15:32;;;;;;;17.80;10.40;;;;;;;-128.00;-1.00;-1.00;103366;1291;1012858;-73
2022/10/16 04:18:20;;;;;;;18.40;11.40;;;;;;;-128.00;-1.00;-1.00;103294;1291;1009289;-74
2022/10/16 04:21:08;;;;;;;19.20;11.20;;;;;;;-128.00;-1.00;-1.00;103241;1286;1011780;-71
2022/10/16 04:23:56;;;;;;;22.80;13.20;;;;;;;-128.00;-1.00;-1.00;103201;1291;1013480;-73
2022/10/16 04:26:43;;;;;;;23.00;13.30;;;;;;;-128.00;-1.00;-1.00;103356;1275;1012118;-74
2022/10/16 04:29:31;;;;;;;18.80;10.60;;;;;;;-128.00;-1.00;-1.00;103354;1275;1011970;-74
2022/10/16 04:32:19;;;;;;;22.50;12.60;;;;;;;-128.00;-1.00;-1.00;103345;1275;1010138;-74
2022/10/16 04:35:07;;;;;;;22.60;13.40;;;;;;;-128.00;-1.00;-1.00;103316;1284;1010584;-75
2022/10/16 04:37:58;;;;;;;23.70;13.40;;;;;;;-128.00;-1.00;-1.00;103349;1282;1013091;-75
2022/10/16 04:40:45;;;;;;;22.10;13.60;;;;;;;-128.00;-1.00;-1.00;103362;1289;1013112;-75
2022/10/16 04:43:34;;;;;;;22.10;13.20;;;;;;;-128.00;-1.00;-1.00;103337;1276;1012955;-74
2022/10/16 04:46:22;;;;;;;23.30;13.50;;;;;;;-128.00;-1.00;-1.00;103352;1275;1009657;-76
2022/10/16 04:49:09;;;;;;;22.90;12.50;;;;;;;-128.00;-1.00;-1.00;103348;1291;1010977;-75
2022/10/16 04:51:57;;;;;;;25.30;15.00;;;;;;;-128.00;-1.00;-1.00;103344;1290;1013287;-75
2022/10/16 04:54:45;;;;;;;22.80;13.50;;;;;;;-128.00;-1.00;-1.00;103319;1291;1012670;-75
2022/10/16 04:57:33;;;;;;;24.00;13.90;;;;;;;-128.00;-1.00;-1.00;103344;1291;1013273;-75
2022/10/16 05:00:22;;;;;;;21.80;13.50;;;;;;;-128.00;-1.00;-1.00;103330;1288;1010004;-74
2022/10/16 05:03:10;;;;;;;25.50;13.40;;;;;;;-128.00;-1.00;-1.00;103335;1274;1011155;-75
2022/10/16 05:05:58;;;;;;;23.80;14.30;;;;;;;-128.00;-1.00;-1.00;103328;1283;1012750;-75
2022/10/16 05:08:45;;;;;;;23.40;13.90;;;;;;;-128.00;-1.00;-1.00;103317;1283;1012698;-77
2022/10/16 05:11:34;;;;;;;23.40;14.10;;;;;;;-128.00;-1.00;-1.00;103340;1282;1012081;-75
2022/10/16 05:14:21;;;;;;;24.90;15.40;;;;;;;-128.00;-1.00;-1.00;103338;1275;1010702;-77
2022/10/16 05:17:09;;;;;;;23.60;14.00;;;;;;;-128.00;-1.00;-1.00;103364;1291;1010171;-75
2022/10/16 05:19:57;;;;;;;21.50;13.40;;;;;;;-128.00;-1.00;-1.00;103243;1278;1013907;-76
2022/10/16 05:22:45;;;;;;;23.40;13.10;;;;;;;-128.00;-1.00;-1.00;103352;1275;1012098;-75
2022/10/16 05:25:33;;;;;;;25.10;15.20;;;;;;;-128.00;-1.00;-1.00;103362;1282;1012942;-74
2022/10/16 05:28:21;;;;;;;24.20;13.80;;;;;;;-128.00;-1.00;-1.00;103197;1275;1009516;-74
2022/10/16 05:31:10;;;;;;;22.30;13.40;;;;;;;-128.00;-1.00;-1.00;103311;1291;1010169;-75
2022/10/16 05:34:01;;;;;;;23.00;13.40;;;;;;;-128.00;-1.00;-1.00;103367;1283;1012687;-74
2022/10/16 05:36:49;;;;;;;23.20;14.40;;;;;;;-128.00;-1.00;-1.00;103354;1284;1012403;-76
2022/10/16 05:39:38;;;;;;;33.30;17.30;;;;;;;-128.00;-1.00;-1.00;103341;1275;1012678;-74
2022/10/16 05:42:26;;;;;;;30.20;16.10;;;;;;;-128.00;-1.00;-1.00;103335;1282;1009763;-74
2022/10/16 05:45:14;;;;;;;36.10;18.40;;;;;;;-128.00;-1.00;-1.00;103323;1291;1010132;-76
2022/10/16 05:48:02;;;;;;;35.80;16.60;;;;;;;-128.00;-1.00;-1.00;103338;1275;1011873;-76
2022/10/16 05:51:03;;;;;;;30.30;17.00;;;;;;;-128.00;-1.00;-1.00;103332;1283;1011709;-74
2022/10/16 05:53:52;;;;;;;26.90;15.20;;;;;;;-128.00;-1.00;-1.00;103324;1275;1013033;-74
2022/10/16 05:56:40;;;;;;;26.40;15.90;;;;;;;-128.00;-1.00;-1.00;103230;1287;1009890;-74
2022/10/16 05:59:28;;;;;;;35.40;16.90;;;;;;;-128.00;-1.00;-1.00;103338;1291;1012601;-74
2022/10/16 06:02:16;;;;;;;35.60;17.80;;;;;;;-128.00;-1.00;-1.00;103361;1271;1012382;-74
2022/10/16 06:05:04;;;;;;;31.80;14.90;;;;;;;-128.00;-1.00;-1.00;103330;1290;1012553;-74
2022/10/16 06:07:56;;;;;;;27.90;16.90;;;;;;;-128.00;-1.00;-1.00;103342;1275;1012792;-76
2022/10/16 06:11:08;;;;;;;28.50;16.50;;;;;;;-128.00;-1.00;-1.00;103031;1278;1010037;-79
2022/10/16 06:14:01;;;;;;;29.20;16.80;;;;;;;-128.00;-1.00;-1.00;103175;1291;1011460;-75
2022/10/16 06:16:49;;;;;;;42.80;19.20;;;;;;;-128.00;-1.00;-1.00;103366;1284;1013105;-76
2022/10/16 06:19:36;;;;;;;34.10;16.60;;;;;;;-128.00;-1.00;-1.00;103343;1284;1012326;-76
2022/10/16 06:22:24;;;;;;;33.60;16.50;;;;;;;-128.00;-1.00;-1.00;103316;1289;1012928;-76
2022/10/16 06:25:12;;;;;;;30.60;17.10;;;;;;;-128.00;-1.00;-1.00;103315;1291;1010143;-77
2022/10/16 06:28:00;;;;;;;28.80;15.60;;;;;;;-128.00;-1.00;-1.00;103357;1275;1011074;-76
2022/10/16 06:30:59;;;;;;;25.10;15.80;;;;;;;-128.00;-1.00;-1.00;103258;1278;1012825;-77
2022/10/16 06:33:54;;;;;;;29.20;16.50;;;;;;;-128.00;-1.00;-1.00;103125;1283;1012257;-76
2022/10/16 06:36:43;;;;;;;23.00;14.90;;;;;;;-128.00;-1.00;-1.00;103154;1275;1013228;-76
2022/10/16 06:39:31;;;;;;;23.20;14.10;;;;;;;-128.00;-1.00;-1.00;103155;1283;1009409;-75
2022/10/16 06:42:19;;;;;;;24.10;15.30;;;;;;;-128.00;-1.00;-1.00;103247;1284;1010592;-74
2022/10/16 06:45:07;;;;;;;27.20;15.90;;;;;;;-128.00;-1.00;-1.00;103364;1276;1012982;-75
2022/10/16 06:47:55;;;;;;;24.50;15.70;;;;;;;-128.00;-1.00;-1.00;103236;1291;1012344;-75
2022/10/16 06:50:43;;;;;;;21.90;13.90;;;;;;;-128.00;-1.00;-1.00;103355;1268;1012820;-72
2022/10/16 06:53:35;;;;;;;23.00;13.90;;;;;;;-128.00;-1.00;-1.00;103358;1275;1010069;-72
2022/10/16 06:56:38;;;;;;;21.80;13.60;;;;;;;-128.00;-1.00;-1.00;103278;1290;1011075;-73
2022/10/16 06:59:25;;;;;;;19.80;12.70;;;;;;;-128.00;-1.00;-1.00;103362;1283;1012613;-72
2022/10/16 07:02:13;;;;;;;22.50;14.00;;;;;;;-128.00;-1.00;-1.00;103360;1275;1011938;-73
2022/10/16 07:05:01;;;;;;;22.30;13.90;;;;;;;-128.00;-1.00;-1.00;103262;1291;1013361;-75
2022/10/16 07:07:51;;;;;;;22.60;14.60;;;;;;;-128.00;-1.00;-1.00;103363;1282;1009568;-77
2022/10/16 07:10:38;;;;;;;22.60;14.10;;;;;;;-128.00;-1.00;-1.00;103356;1274;1010971;-76
2022/10/16 07:13:26;;;;;;;19.60;12.40;;;;;;;-128.00;-1.00;-1.00;103318;1284;1012199;-76
2022/10/16 07:16:22;;;;;;;21.80;13.90;;;;;;;-128.00;-1.00;-1.00;103336;1275;1012735;-75
2022/10/16 07:19:11;;;;;;;20.40;12.80;;;;;;;-128.00;-1.00;-1.00;103324;1282;1012632;-76
2022/10/16 07:21:59;;;;;;;19.80;12.80;;;;;;;-128.00;-1.00;-1.00;103321;1291;1009905;-76
2022/10/16 07:24:47;;;;;;;17.00;11.10;;;;;;;-128.00;-1.00;-1.00;103336;1290;1011047;-77
2022/10/16 07:27:41;;;;;;;17.30;10.70;;;;;;;-128.00;-1.00;-1.00;103347;1281;1012606;-76
2022/10/16 07:30:29;;;;;;;16.90;10.10;;;;;;;-128.00;-1.00;-1.00;103258;1279;1012766;-75
2022/10/16 07:33:17;;;;;;;17.30;10.50;;;;;;;-128.00;-1.00;-1.00;103240;1278;1012862;-77
2022/10/16 07:36:06;;;;;;;18.50;11.20;;;;;;;-128.00;-1.00;-1.00;103281;1268;1010532;-76
2022/10/16 07:38:57;;;;;;;19.90;12.20;;;;;;;-128.00;-1.00;-1.00;103267;1291;1011730;-76
2022/10/16 07:41:46;;;;;;;17.90;10.20;;;;;;;-128.00;-1.00;-1.00;103350;1284;1012035;-77
2022/10/16 07:44:34;;;;;;;19.70;11.70;;;;;;;-128.00;-1.00;-1.00;103323;1275;1012942;-76
2022/10/16 07:47:22;;;;;;;18.90;11.20;;;;;;;-128.00;-1.00;-1.00;103344;1283;1012712;-77
2022/10/16 07:50:11;;;;;;;19.10;12.20;;;;;;;-128.00;-1.00;-1.00;103349;1276;1009757;-77
2022/10/16 07:52:59;;;;;;;19.10;12.60;;;;;;;-128.00;-1.00;-1.00;103340;1290;1011309;-72
2022/10/16 07:55:47;;;;;;;18.10;11.60;;;;;;;-128.00;-1.00;-1.00;103347;1284;1012559;-73
2022/10/16 07:58:37;;;;;;;20.90;12.70;;;;;;;-128.00;-1.00;-1.00;103336;1275;1012145;-74
2022/10/16 08:01:24;;;;;;;22.00;14.10;;;;;;;-128.00;-1.00;-1.00;103242;1287;1012513;-74
2022/10/16 08:04:12;;;;;;;23.40;14.60;;;;;;;-128.00;-1.00;-1.00;103342;1275;1010442;-73
2022/10/16 08:07:00;;;;;;;21.40;13.90;;;;;;;-128.00;-1.00;-1.00;103287;1286;1010923;-74
2022/10/16 08:09:56;;;;;;;25.50;15.10;;;;;;;-128.00;-1.00;-1.00;103355;1290;1012231;-74
2022/10/16 08:12:44;;;;;;;23.70;10.30;;;;;;;-128.00;-1.00;-1.00;103332;1276;1013151;-74
2022/10/16 08:15:32;;;;;;;25.10;15.50;;;;;;;-128.00;-1.00;-1.00;103360;1275;1013037;-73
2022/10/16 08:18:19;;;;;;;26.10;16.50;;;;;;;-128.00;-1.00;-1.00;103341;1276;1010173;-74
2022/10/16 08:21:16;;;;;;;23.60;14.00;;;;;;;-128.00;-1.00;-1.00;103319;1288;1010546;-73
2022/10/16 08:24:08;;;;;;;25.50;15.40;;;;;;;-128.00;-1.00;-1.00;103257;1282;1012973;-74
2022/10/16 08:26:56;;;;;;;24.20;15.20;;;;;;;-128.00;-1.00;-1.00;103379;1274;1011380;-74
2022/10/16 08:29:43;;;;;;;27.20;16.50;;;;;;;-128.00;-1.00;-1.00;103354;1282;1012160;-75
2022/10/16 08:32:31;;;;;;;25.80;17.00;;;;;;;-128.00;-1.00;-1.00;103338;1291;1011074;-72
2022/10/16 08:35:19;;;;;;;25.60;16.10;;;;;;;-128.00;-1.00;-1.00;103351;1290;1011471;-73
2022/10/16 08:38:07;;;;;;;25.90;15.50;;;;;;;-128.00;-1.00;-1.00;103348;1290;1012680;-73
2022/10/16 08:41:07;;;;;;;34.70;18.60;;;;;;;-128.00;-1.00;-1.00;103335;1276;1012585;-73
2022/10/16 08:44:24;;;;;;;28.70;16.60;;;;;;;-128.00;-1.00;-1.00;103183;1271;1012638;-73
2022/10/16 08:47:21;;;;;;;32.30;18.10;;;;;;;-128.00;-1.00;-1.00;103312;1292;1009227;-72
2022/10/16 08:50:21;;;;;;;31.10;16.90;;;;;;;-128.00;-1.00;-1.00;103347;1284;1011447;-75
2022/10/16 08:53:20;;;;;;;34.20;17.40;;;;;;;-128.00;-1.00;-1.00;103245;1286;1012366;-74
2022/10/16 08:56:07;;;;;;;33.90;17.60;;;;;;;-128.00;-1.00;-1.00;103254;1276;1012117;-75
2022/10/16 08:58:59;;;;;;;29.60;16.70;;;;;;;-128.00;-1.00;-1.00;103336;1275;1012544;-74
2022/10/16 09:01:51;;;;;;;34.30;19.70;;;;;;;-128.00;-1.00;-1.00;103259;1283;1009876;-72
2022/10/16 09:05:04;;;;;;;32.30;16.90;;;;;;;-128.00;-1.00;-1.00;103215;1279;1011519;-73
2022/10/16 09:08:08;;;;;;;25.10;13.50;;;;;;;-128.00;-1.00;-1.00;103258;1283;1013009;-73
2022/10/16 09:11:23;;;;;;;32.10;15.90;;;;;;;-128.00;-1.00;-1.00;103310;1283;1012531;-74
2022/10/16 09:14:31;;;;;;;28.60;16.20;;;;;;;-128.00;-1.00;-1.00;103356;1275;1012937;-75
2022/10/16 09:17:55;;;;;;;27.30;16.30;;;;;;;-128.00;-1.00;-1.00;103351;1281;1009564;-74
2022/10/16 09:21:26;;;;;;;26.50;15.50;;;;;;;-128.00;-1.00;-1.00;103282;1277;1010567;-72
2022/10/16 09:24:25;;;;;;;27.90;16.40;;;;;;;-128.00;-1.00;-1.00;103231;1271;1013135;-73
2022/10/16 09:27:16;;;;;;;24.80;15.40;;;;;;;-128.00;-1.00;-1.00;103381;1275;1011446;-72
2022/10/16 09:30:30;;;;;;;26.80;15.90;;;;;;;-128.00;-1.00;-1.00;103332;1282;1013758;-72
2022/10/16 09:33:24;;;;;;;25.80;15.60;;;;;;;-128.00;-1.00;-1.00;103084;1299;1009778;-74
2022/10/16 09:36:27;;;;;;;26.50;15.20;;;;;;;-128.00;-1.00;-1.00;103197;1291;1011669;-73
2022/10/16 09:39:25;;;;;;;26.50;15.70;;;;;;;-128.00;-1.00;-1.00;103102;1290;1013379;-73
2022/10/16 09:42:36;;;;;;;25.60;16.20;;;;;;;-128.00;-1.00;-1.00;103241;1292;1012242;-74
2022/10/16 09:45:24;;;;;;;24.90;15.00;;;;;;;-128.00;-1.00;-1.00;103365;1282;1013090;-72
2022/10/16 09:48:19;;;;;;;26.50;15.90;;;;;;;-128.00;-1.00;-1.00;103350;1282;1009828;-72
2022/10/16 09:51:27;;;;;;;26.40;15.50;;;;;;;-128.00;-1.00;-1.00;103183;1278;1012147;-74
2022/10/16 09:54:29;;;;;;;27.60;16.30;;;;;;;-128.00;-1.00;-1.00;103263;1282;1012147;-73
2022/10/16 09:57:24;;;;;;;26.40;15.50;;;;;;;-128.00;-1.00;-1.00;103132;1287;1012722;-73
2022/10/16 10:00:17;;;;;;;27.00;17.00;;;;;;;-128.00;-1.00;-1.00;103365;1275;1013214;-73
2022/10/16 10:03:11;;;;;;;25.90;16.00;;;;;;;-128.00;-1.00;-1.00;103341;1274;1010138;-71
2022/10/16 10:06:17;;;;;;;27.00;16.30;;;;;;;-128.00;-1.00;-1.00;103231;1279;1010480;-74
2022/10/16 10:09:37;;;;;;;26.00;14.50;;;;;;;-128.00;-1.00;-1.00;103272;1274;1012943;-75
2022/10/16 10:12:28;;;;;;;28.00;16.30;;;;;;;-128.00;-1.00;-1.00;103242;1287;1013015;-74
2022/10/16 10:15:21;;;;;;;26.10;15.70;;;;;;;-128.00;-1.00;-1.00;103246;1288;1012612;-74
2022/10/16 10:18:22;;;;;;;23.20;13.60;;;;;;;-128.00;-1.00;-1.00;103347;1283;1009346;-73
2022/10/16 10:21:15;;;;;;;26.80;14.80;;;;;;;-128.00;-1.00;-1.00;103352;1288;1011351;-73
2022/10/16 10:24:04;;;;;;;26.80;16.70;;;;;;;-128.00;-1.00;-1.00;103346;1291;1012383;-73
2022/10/16 10:27:16;;;;;;;28.10;16.40;;;;;;;-128.00;-1.00;-1.00;103363;1282;1012175;-74
2022/10/16 10:30:56;;;;;;;26.90;15.60;;;;;;;-128.00;-1.00;-1.00;103313;1298;1012421;-74
2022/10/16 10:34:01;;;;;;;27.10;16.50;;;;;;;-128.00;-1.00;-1.00;103342;1291;1009162;-73
2022/10/16 10:37:36;;;;;;;28.10;16.20;;;;;;;-128.00;-1.00;-1.00;103171;1290;1010941;-73
2022/10/16 10:40:37;;;;;;;25.50;14.20;;;;;;;-128.00;-1.00;-1.00;103216;1278;1012097;-73
2022/10/16 10:43:44;;;;;;;28.70;16.50;;;;;;;-128.00;-1.00;-1.00;103277;1290;1012786;-74
2022/10/16 10:46:46;;;;;;;30.60;17.10;;;;;;;-128.00;-1.00;-1.00;103338;1281;1013293;-73
2022/10/16 10:50:21;;;;;;;25.90;15.50;;;;;;;-128.00;-1.00;-1.00;103264;1292;1010258;-71
2022/10/16 10:53:43;;;;;;;24.70;15.40;;;;;;;-128.00;-1.00;-1.00;103222;1292;1011007;-73
2022/10/16 10:56:59;;;;;;;24.50;13.60;;;;;;;-128.00;-1.00;-1.00;103241;1292;1012372;-72
2022/10/16 11:00:05;;;;;;;24.30;15.10;;;;;;;-128.00;-1.00;-1.00;103333;1281;1011847;-73
2022/10/16 11:03:03;;;;;;;25.90;14.60;;;;;;;-128.00;-1.00;-1.00;103346;1282;1013471;-72
2022/10/16 11:06:29;;;;;;;23.90;14.20;;;;;;;-128.00;-1.00;-1.00;103364;1282;1009584;-73
2022/10/16 11:09:27;;;;;;;23.40;13.80;;;;;;;-128.00;-1.00;-1.00;103290;1292;1011280;-73
2022/10/16 11:12:21;;;;;;;24.10;14.10;;;;;;;-128.00;-1.00;-1.00;103265;1277;1012546;-72
2022/10/16 11:15:18;;;;;;;20.40;13.40;;;;;;;-128.00;-1.00;-1.00;103253;1283;1011837;-73
2022/10/16 11:18:20;;;;;;;18.10;12.10;;;;;;;-128.00;-1.00;-1.00;103236;1282;1012734;-72
2022/10/16 11:21:12;;;;;;;21.50;12.00;;;;;;;-128.00;-1.00;-1.00;103338;1277;1009768;-75
2022/10/16 11:24:23;;;;;;;16.50;11.20;;;;;;;-128.00;-1.00;-1.00;103175;1290;1011756;-74
2022/10/16 11:27:19;;;;;;;16.80;11.00;;;;;;;-128.00;-1.00;-1.00;103343;1282;1012608;-72
2022/10/16 11:30:28;;;;;;;16.90;10.10;;;;;;;-128.00;-1.00;-1.00;103199;1285;1012148;-72
2022/10/16 11:33:18;;;;;;;16.00;10.30;;;;;;;-128.00;-1.00;-1.00;103262;1289;1013251;-73
2022/10/16 11:36:23;;;;;;;27.20;18.50;;;;;;;-128.00;-1.00;-1.00;103356;1282;1010140;-72
2022/10/16 11:39:24;;;;;;;22.20;15.50;;;;;;;-128.00;-1.00;-1.00;103255;1298;1011073;-73
2022/10/16 11:42:38;;;;;;;16.80;10.50;;;;;;;-128.00;-1.00;-1.00;103351;1281;1012361;-72
2022/10/16 11:45:51;;;;;;;15.60;9.20;;;;;;;-128.00;-1.00;-1.00;103200;1292;1012223;-73
2022/10/16 11:48:54;;;;;;;12.90;8.30;;;;;;;-128.00;-1.00;-1.00;103236;1284;1012120;-73
2022/10/16 11:52:20;;;;;;;12.60;8.40;;;;;;;-128.00;-1.00;-1.00;103270;1288;1010153;-72
2022/10/16 11:55:43;;;;;;;12.80;7.50;;;;;;;-128.00;-1.00;-1.00;103319;1291;1010634;-74
2022/10/16 11:59:03;;;;;;;11.40;7.10;;;;;;;-128.00;-1.00;-1.00;103279;1282;1013396;-74
2022/10/16 12:02:25;;;;;;;12.00;7.50;;;;;;;-128.00;-1.00;-1.00;103276;1292;1012210;-73
2022/10/16 12:05:45;;;;;;;12.30;6.90;;;;;;;-128.00;-1.00;-1.00;103297;1274;1013115;-76
2022/10/16 12:08:35;;;;;;;11.50;7.00;;;;;;;-128.00;-1.00;-1.00;103321;1290;1011184;-73
2022/10/16 12:11:29;;;;;;;11.60;7.50;;;;;;;-128.00;-1.00;-1.00;103270;1292;1010252;-73
2022/10/16 12:14:42;;;;;;;11.10;6.90;;;;;;;-128.00;-1.00;-1.00;103321;1290;1012204;-73
2022/10/16 12:17:51;;;;;;;10.40;6.80;;;;;;;-128.00;-1.00;-1.00;103326;1283;1011711;-74
2022/10/16 12:20:45;;;;;;;11.80;7.10;;;;;;;-128.00;-1.00;-1.00;103316;1276;1012077;-73
2022/10/16 12:23:38;;;;;;;11.10;6.30;;;;;;;-128.00;-1.00;-1.00;103319;1282;1010250;-73
2022/10/16 12:26:44;;;;;;;11.10;6.30;;;;;;;-128.00;-1.00;-1.00;103334;1292;1010967;-77
2022/10/16 12:29:42;;;;;;;11.20;6.00;;;;;;;-128.00;-1.00;-1.00;103155;1277;1013059;-74
2022/10/16 12:32:37;;;;;;;10.50;5.40;;;;;;;-128.00;-1.00;-1.00;103146;1295;1012986;-75
2022/10/16 12:35:46;;;;;;;11.60;6.20;;;;;;;-128.00;-1.00;-1.00;103227;1278;1013345;-75
2022/10/16 12:38:54;;;;;;;11.10;6.10;;;;;;;-128.00;-1.00;-1.00;103209;1282;1010188;-74
2022/10/16 12:41:42;;;;;;;11.30;6.40;;;;;;;-128.00;-1.00;-1.00;103242;1290;1011082;-73
2022/10/16 12:44:37;;;;;;;10.70;6.20;;;;;;;-128.00;-1.00;-1.00;103277;1284;1013079;-74
2022/10/16 12:47:31;;;;;;;11.00;6.10;;;;;;;-128.00;-1.00;-1.00;103137;1283;1013306;-74
2022/10/16 12:50:40;;;;;;;10.10;5.50;;;;;;;-128.00;-1.00;-1.00;103344;1292;1013431;-74
2022/10/16 12:53:28;;;;;;;10.20;5.70;;;;;;;-128.00;-1.00;-1.00;103339;1290;1009374;-73
2022/10/16 12:56:28;;;;;;;9.30;5.80;;;;;;;-128.00;-1.00;-1.00;103273;1290;1010872;-75
2022/10/16 13:00:01;;;;;;;10.80;6.00;;;;;;;-128.00;-1.00;-1.00;103158;1288;1013686;-74
2022/10/16 13:03:40;;;;;;;10.50;5.80;;;;;;;-128.00;-1.00;-1.00;103293;1282;1012117;-77
2022/10/16 13:07:06;;;;;;;9.40;5.50;;;;;;;-128.00;-1.00;-1.00;103328;1279;1012689;-73